Time;durP1;ratioP1;P1;durP2;ratioP2;P2;SDS_P1;SDS_P2;PMS_P1;PMS_P2;Temp;Humidity;BMP_temperature;BMP_pressure;BME280_temperature;BME280_humidity;BME280_pressure;Samples;Min_cycle;Max_cycle;Signal;HPM_P1;HPM_P2
2022/06/27 00:01:57;;;;;;;1.33;0.60;;;15.80;99.90;;;;;;5104938;28;20071;-68
2022/06/27 00:04:24;;;;;;;3.25;0.35;;;15.90;99.90;;;;;;5100161;28;20035;-70
2022/06/27 00:06:50;;;;;;;1.00;0.30;;;15.90;99.90;;;;;;5110609;28;20075;-69
2022/06/27 00:09:16;;;;;;;1.60;0.35;;;16.00;99.90;;;;;;5098660;28;20070;-69
2022/06/27 00:11:42;;;;;;;1.88;0.32;;;15.80;99.90;;;;;;5105711;28;20036;-69
2022/06/27 00:14:08;;;;;;;1.45;0.30;;;15.80;99.90;;;;;;5103104;28;20100;-70
2022/06/27 00:16:34;;;;;;;0.20;0.20;;;15.70;99.90;;;;;;5110795;28;20062;-69
2022/06/27 00:18:59;;;;;;;0.70;0.40;;;15.60;99.90;;;;;;5111386;28;20135;-68
2022/06/27 00:21:25;;;;;;;0.30;0.20;;;15.60;99.90;;;;;;5100190;28;20547;-69
2022/06/27 00:23:51;;;;;;;1.98;0.45;;;15.70;99.90;;;;;;5104174;28;20517;-69
2022/06/27 00:26:17;;;;;;;0.35;0.30;;;15.70;99.90;;;;;;5107057;28;20043;-69
2022/06/27 00:28:43;;;;;;;2.28;0.20;;;15.70;99.90;;;;;;5097113;28;20051;-69
2022/06/27 00:31:09;;;;;;;1.15;0.40;;;15.60;99.90;;;;;;5110063;28;20040;-69
2022/06/27 00:33:34;;;;;;;2.30;0.20;;;15.70;99.90;;;;;;5083047;28;20050;-69
2022/06/27 00:36:00;;;;;;;1.67;0.40;;;15.80;99.90;;;;;;5096589;28;20165;-68
2022/06/27 00:38:26;;;;;;;0.47;0.30;;;15.70;99.90;;;;;;5108411;28;20130;-69
2022/06/27 00:40:52;;;;;;;0.90;0.50;;;15.70;99.90;;;;;;5097009;28;20182;-70
2022/06/27 00:43:18;;;;;;;2.30;0.22;;;15.70;99.90;;;;;;5108916;28;20192;-70
2022/06/27 00:45:45;;;;;;;1.02;0.25;;;15.80;99.90;;;;;;5101275;28;20426;-70
2022/06/27 00:48:10;;;;;;;2.30;0.50;;;15.90;99.90;;;;;;5109057;28;20057;-70
2022/06/27 00:50:36;;;;;;;3.25;0.30;;;15.90;99.90;;;;;;5114117;28;20113;-69
2022/06/27 00:53:02;;;;;;;4.72;0.30;;;15.90;99.90;;;;;;5096700;28;20051;-70
2022/06/27 00:55:29;;;;;;;3.85;0.30;;;16.00;99.90;;;;;;5107062;28;20136;-70
2022/06/27 00:57:55;;;;;;;0.88;0.57;;;16.00;99.90;;;;;;5103909;28;20044;-69
2022/06/27 01:00:22;;;;;;;7.15;0.30;;;16.00;99.90;;;;;;5100010;28;20034;-70
2022/06/27 01:02:48;;;;;;;0.30;0.25;;;16.00;99.90;;;;;;5091949;28;20051;-69
2022/06/27 01:05:14;;;;;;;0.63;0.25;;;15.90;99.90;;;;;;5098051;28;20051;-69
2022/06/27 01:07:40;;;;;;;0.93;0.25;;;16.00;99.90;;;;;;5105358;28;20052;-70
2022/06/27 01:10:08;;;;;;;0.60;0.20;;;15.80;99.90;;;;;;5105241;28;20114;-70
2022/06/27 01:12:34;;;;;;;0.95;0.20;;;15.90;99.90;;;;;;5097797;28;20121;-69
2022/06/27 01:15:01;;;;;;;0.90;0.20;;;16.00;99.90;;;;;;5110191;28;20494;-70
2022/06/27 01:17:27;;;;;;;0.82;0.30;;;16.00;99.90;;;;;;5100234;28;20039;-69
2022/06/27 01:19:53;;;;;;;1.15;0.30;;;16.00;99.90;;;;;;5105637;28;20039;-70
2022/06/27 01:22:19;;;;;;;0.93;0.25;;;15.90;99.90;;;;;;5099808;28;20530;-68
2022/06/27 01:24:45;;;;;;;0.30;0.30;;;16.00;99.90;;;;;;5110010;28;20075;-68
2022/06/27 01:27:11;;;;;;;1.27;0.22;;;16.00;99.90;;;;;;5097348;28;20032;-70
2022/06/27 01:29:37;;;;;;;1.15;0.20;;;15.90;99.90;;;;;;5105631;28;20036;-70
2022/06/27 01:32:04;;;;;;;0.60;0.40;;;16.00;99.90;;;;;;5089488;28;20051;-70
2022/06/27 01:34:30;;;;;;;1.45;0.40;;;16.10;99.90;;;;;;5083873;28;20392;-69
2022/06/27 01:36:56;;;;;;;4.03;0.30;;;16.00;99.90;;;;;;5113597;28;20039;-68
2022/06/27 01:39:24;;;;;;;2.45;0.30;;;15.90;99.90;;;;;;5102536;28;20038;-68
2022/06/27 01:41:59;;;;;;;2.72;1.27;;;15.80;99.90;;;;;;5107328;28;20040;-69
2022/06/27 01:44:28;;;;;;;1.52;0.32;;;15.90;99.90;;;;;;5111284;28;20109;-69
2022/06/27 01:46:59;;;;;;;3.53;0.35;;;15.90;99.90;;;;;;5100146;28;20542;-70
2022/06/27 01:49:29;;;;;;;2.38;0.30;;;15.90;99.90;;;;;;5110704;28;20410;-69
2022/06/27 01:51:57;;;;;;;3.25;0.40;;;15.90;99.90;;;;;;5106877;28;20383;-70
2022/06/27 01:54:24;;;;;;;4.25;0.45;;;15.80;99.90;;;;;;5102562;28;20119;-70
2022/06/27 01:56:54;;;;;;;0.47;0.20;;;15.80;99.90;;;;;;5113359;28;20051;-70
2022/06/27 01:59:22;;;;;;;7.10;0.45;;;15.90;99.90;;;;;;5101988;28;20089;-70
2022/06/27 02:01:48;;;;;;;6.63;0.40;;;15.90;99.90;;;;;;5107233;28;20047;-69
2022/06/27 02:04:15;;;;;;;0.75;0.55;;;15.90;99.90;;;;;;5087042;28;20043;-69
2022/06/27 02:06:43;;;;;;;0.93;0.30;;;15.90;99.90;;;;;;5115870;28;20372;-69
2022/06/27 02:09:11;;;;;;;2.88;0.30;;;15.80;99.90;;;;;;5084021;28;20032;-69
2022/06/27 02:11:42;;;;;;;1.27;0.20;;;15.90;99.90;;;;;;5108779;28;20044;-69
2022/06/27 02:14:08;;;;;;;0.70;0.60;;;15.90;99.90;;;;;;5108698;28;20036;-70
2022/06/27 02:16:34;;;;;;;2.70;0.35;;;15.80;99.90;;;;;;5100168;28;20554;-69
2022/06/27 02:19:00;;;;;;;1.83;0.30;;;15.80;99.90;;;;;;5112774;28;20039;-69
2022/06/27 02:21:31;;;;;;;4.20;0.40;;;15.90;99.90;;;;;;5102266;28;20104;-69
2022/06/27 02:23:57;;;;;;;;;;;15.90;99.90;;;;;;5105972;28;20194;-70
2022/06/27 02:26:29;;;;;;;0.95;0.30;;;15.90;99.90;;;;;;5110266;28;19939;-68
2022/06/27 02:28:56;;;;;;;3.90;0.30;;;16.00;99.90;;;;;;5099253;28;20158;-69
2022/06/27 02:31:23;;;;;;;2.83;0.28;;;15.90;99.90;;;;;;5110367;28;20059;-69
2022/06/27 02:33:51;;;;;;;2.50;0.30;;;15.90;99.90;;;;;;5103727;28;20035;-70
2022/06/27 02:36:20;;;;;;;0.50;0.20;;;16.10;99.90;;;;;;5111309;28;20169;-69
2022/06/27 02:38:50;;;;;;;0.35;0.28;;;16.10;99.90;;;;;;5115478;28;20110;-68
2022/06/27 02:41:17;;;;;;;0.77;0.20;;;16.10;99.90;;;;;;5100645;28;20069;-69
2022/06/27 02:43:52;;;;;;;1.65;0.30;;;16.10;99.90;;;;;;5101109;28;20058;-69
2022/06/27 02:46:19;;;;;;;1.75;0.28;;;16.10;99.90;;;;;;5108549;28;20043;-68
2022/06/27 02:48:48;;;;;;;5.43;0.25;;;16.00;99.90;;;;;;5098052;28;20097;-69
2022/06/27 02:51:19;;;;;;;1.45;0.30;;;16.00;99.90;;;;;;5114955;28;20036;-69
2022/06/27 02:53:54;;;;;;;3.88;0.20;;;16.00;99.90;;;;;;5116320;28;20397;-69
2022/06/27 02:56:25;;;;;;;3.40;0.40;;;15.90;99.90;;;;;;5116379;28;20039;-69
2022/06/27 02:59:12;;;;;;;1.80;0.20;;;15.90;99.90;;;;;;5112950;28;20130;-69
2022/06/27 03:01:41;;;;;;;2.63;0.50;;;16.00;99.90;;;;;;5091442;28;20119;-69
2022/06/27 03:04:07;;;;;;;1.95;0.30;;;16.00;99.90;;;;;;5094256;28;20093;-70
2022/06/27 03:06:33;;;;;;;4.82;0.38;;;16.00;99.90;;;;;;5095328;28;20429;-68
2022/06/27 03:08:59;;;;;;;4.80;0.75;;;16.00;99.90;;;;;;5095554;28;20032;-70
2022/06/27 03:11:25;;;;;;;1.13;0.43;;;16.00;99.90;;;;;;5095493;28;20109;-70
2022/06/27 03:13:53;;;;;;;0.40;0.30;;;16.00;99.90;;;;;;5095427;28;20035;-69
2022/06/27 03:16:20;;;;;;;1.70;0.30;;;16.00;99.90;;;;;;5095414;28;20032;-69
2022/06/27 03:18:47;;;;;;;2.50;0.25;;;16.00;99.90;;;;;;5095218;28;20482;-70
2022/06/27 03:21:13;;;;;;;1.80;0.30;;;16.00;99.90;;;;;;5095151;28;20055;-69
2022/06/27 03:23:40;;;;;;;0.90;0.30;;;16.00;99.90;;;;;;5095239;28;20032;-70
2022/06/27 03:26:06;;;;;;;1.60;0.30;;;16.00;99.90;;;;;;5095257;28;20388;-69
2022/06/27 03:28:32;;;;;;;3.45;0.30;;;16.00;99.90;;;;;;5095252;28;20032;-69
2022/06/27 03:30:58;;;;;;;4.35;0.40;;;16.00;99.90;;;;;;5095158;28;20116;-70
2022/06/27 03:33:23;;;;;;;1.70;0.30;;;16.10;99.90;;;;;;5094922;28;20509;-69
2022/06/27 03:35:49;;;;;;;0.88;0.28;;;16.00;99.90;;;;;;5094794;28;20046;-70
2022/06/27 03:38:15;;;;;;;0.30;0.30;;;16.10;99.90;;;;;;5094827;28;20064;-69
2022/06/27 03:40:41;;;;;;;1.55;0.30;;;16.10;99.90;;;;;;5094743;28;20043;-70
2022/06/27 03:43:07;;;;;;;1.55;0.25;;;16.00;99.90;;;;;;5094775;28;20097;-69
2022/06/27 03:45:33;;;;;;;1.98;0.25;;;16.00;99.90;;;;;;5094639;28;20116;-70
2022/06/27 03:48:01;;;;;;;4.32;0.30;;;15.90;99.90;;;;;;5108163;28;20490;-70
2022/06/27 03:50:27;;;;;;;1.40;0.30;;;15.90;99.90;;;;;;5114863;28;20051;-69
2022/06/27 03:52:55;;;;;;;1.98;0.60;;;15.80;99.90;;;;;;5114470;28;20047;-70
2022/06/27 03:55:22;;;;;;;1.45;0.20;;;15.80;99.90;;;;;;5114517;28;20089;-69
2022/06/27 03:57:54;;;;;;;2.33;0.30;;;15.70;99.90;;;;;;5115018;28;20122;-70
2022/06/27 04:00:23;;;;;;;0.57;0.28;;;15.70;99.90;;;;;;5114909;28;20126;-70
2022/06/27 04:02:49;;;;;;;6.38;0.30;;;15.70;99.90;;;;;;5114715;28;20040;-69
2022/06/27 04:05:15;;;;;;;2.95;0.45;;;15.70;99.90;;;;;;5114966;28;20123;-69
2022/06/27 04:07:41;;;;;;;10.27;1.10;;;15.70;99.90;;;;;;5114980;28;20035;-70
2022/06/27 04:10:11;;;;;;;9.70;0.50;;;15.70;99.90;;;;;;5114849;28;20114;-70
2022/06/27 04:12:38;;;;;;;0.40;0.20;;;15.80;99.90;;;;;;5114564;28;20112;-69
2022/06/27 04:15:05;;;;;;;3.50;0.30;;;15.80;99.90;;;;;;5114564;28;20043;-69
2022/06/27 04:17:32;;;;;;;2.15;0.50;;;15.80;99.90;;;;;;5114662;28;20062;-68
2022/06/27 04:19:58;;;;;;;4.38;0.55;;;15.80;99.90;;;;;;5114597;28;20491;-67
2022/06/27 04:22:24;;;;;;;2.17;0.70;;;15.80;99.90;;;;;;5114482;28;20068;-67
2022/06/27 04:24:50;;;;;;;4.30;0.57;;;15.60;99.90;;;;;;5108939;28;20411;-67
2022/06/27 04:27:17;;;;;;;1.67;0.20;;;15.50;99.90;;;;;;5093858;28;20036;-67
2022/06/27 04:29:44;;;;;;;1.05;0.20;;;15.50;99.90;;;;;;5093867;28;20071;-67
2022/06/27 04:32:10;;;;;;;3.75;0.30;;;15.40;99.90;;;;;;5093852;28;20076;-68
2022/06/27 04:34:39;;;;;;;3.28;0.28;;;15.40;99.90;;;;;;5094113;28;20044;-67
2022/06/27 04:37:05;;;;;;;1.05;0.30;;;15.40;99.90;;;;;;5094064;28;20046;-67
2022/06/27 04:39:31;;;;;;;0.30;0.20;;;15.50;99.90;;;;;;5094179;28;20127;-68
2022/06/27 04:41:57;;;;;;;0.93;0.25;;;15.50;99.90;;;;;;5093796;28;20044;-68
2022/06/27 04:44:24;;;;;;;2.53;0.40;;;15.50;99.90;;;;;;5093730;28;20040;-68
2022/06/27 04:46:50;;;;;;;0.40;0.25;;;15.50;99.90;;;;;;5093873;28;20047;-67
2022/06/27 04:49:17;;;;;;;0.98;0.22;;;15.50;99.90;;;;;;5093804;28;20134;-68
2022/06/27 04:51:43;;;;;;;0.90;0.30;;;15.50;99.90;;;;;;5093358;28;20086;-68
2022/06/27 04:54:10;;;;;;;2.97;0.28;;;15.50;99.90;;;;;;5093837;28;20047;-67
2022/06/27 04:56:41;;;;;;;2.80;0.17;;;15.30;99.90;;;;;;5093769;28;20044;-67
2022/06/27 04:59:07;;;;;;;2.22;1.00;;;15.40;99.90;;;;;;5093646;28;20024;-68
2022/06/27 05:01:32;;;;;;;0.93;0.40;;;15.50;99.90;;;;;;5093868;28;20136;-68
2022/06/27 05:03:58;;;;;;;3.15;2.20;;;15.50;99.90;;;;;;5093522;28;20209;-67
2022/06/27 05:06:24;;;;;;;3.17;0.60;;;15.50;99.90;;;;;;5095746;28;20380;-68
2022/06/27 05:08:50;;;;;;;1.40;0.40;;;15.50;99.90;;;;;;5097881;28;20491;-68
2022/06/27 05:11:16;;;;;;;2.67;0.40;;;15.50;99.90;;;;;;5097786;28;20133;-68
2022/06/27 05:13:42;;;;;;;0.80;0.22;;;15.40;99.90;;;;;;5101034;28;20032;-68
2022/06/27 05:16:08;;;;;;;2.08;0.30;;;15.40;99.90;;;;;;5118053;28;20051;-68
2022/06/27 05:18:34;;;;;;;0.50;0.30;;;15.30;99.90;;;;;;5117929;28;20036;-68
2022/06/27 05:21:00;;;;;;;0.40;0.30;;;15.50;99.90;;;;;;5117991;28;20039;-68
2022/06/27 05:23:26;;;;;;;0.77;0.35;;;15.50;99.90;;;;;;5117893;28;20108;-67
2022/06/27 05:25:52;;;;;;;1.33;0.30;;;15.50;99.90;;;;;;5117951;28;20410;-68
2022/06/27 05:28:18;;;;;;;0.98;0.35;;;15.50;99.90;;;;;;5117896;28;20047;-67
2022/06/27 05:30:44;;;;;;;3.30;0.28;;;15.40;99.90;;;;;;5117479;28;20074;-67
2022/06/27 05:33:11;;;;;;;1.08;0.30;;;15.40;99.90;;;;;;5100078;28;20052;-67
2022/06/27 05:35:39;;;;;;;5.40;0.55;;;15.40;99.90;;;;;;5104947;28;20536;-67
2022/06/27 05:38:09;;;;;;;2.55;0.30;;;15.50;99.90;;;;;;5088100;28;20087;-67
2022/06/27 05:40:40;;;;;;;0.28;0.20;;;15.40;99.90;;;;;;5097999;28;20088;-67
2022/06/27 05:43:09;;;;;;;0.10;0.10;;;15.40;99.90;;;;;;5115942;28;20394;-67
2022/06/27 05:45:37;;;;;;;1.00;0.30;;;15.40;99.90;;;;;;5080656;28;20047;-67
2022/06/27 05:48:12;;;;;;;0.77;0.20;;;15.40;99.90;;;;;;5097593;28;20038;-67
2022/06/27 05:50:39;;;;;;;0.50;0.30;;;15.40;99.90;;;;;;5116204;28;20394;-67
2022/06/27 05:55:41;;;;;;;0.40;0.17;;;15.40;99.90;;;;;;5416897;22;20052;-67
2022/06/27 05:58:08;;;;;;;1.25;0.30;;;15.40;99.90;;;;;;5053606;28;20045;-67
2022/06/27 06:00:34;;;;;;;1.98;0.40;;;15.40;99.90;;;;;;5053053;28;20040;-67
2022/06/27 06:03:00;;;;;;;1.30;0.20;;;15.40;99.90;;;;;;5054153;28;20033;-67
2022/06/27 06:05:29;;;;;;;2.33;0.40;;;15.40;99.90;;;;;;5052069;28;20041;-67
2022/06/27 06:08:06;;;;;;;4.60;0.40;;;15.40;99.90;;;;;;5047806;28;20045;-67
2022/06/27 06:10:33;;;;;;;0.55;0.38;;;15.40;99.90;;;;;;5042118;28;20041;-67
2022/06/27 06:13:01;;;;;;;2.90;0.25;;;15.40;99.90;;;;;;5042111;28;20048;-67
2022/06/27 06:15:29;;;;;;;1.90;0.40;;;15.40;99.90;;;;;;5051603;28;20041;-67
2022/06/27 06:17:56;;;;;;;1.50;0.55;;;15.40;99.90;;;;;;5051628;28;20144;-67
2022/06/27 06:20:22;;;;;;;2.83;0.45;;;15.50;99.90;;;;;;5052605;28;20091;-67
2022/06/27 06:22:48;;;;;;;0.63;0.40;;;15.40;99.90;;;;;;5052799;28;20447;-67
2022/06/27 06:25:14;;;;;;;2.55;0.98;;;15.50;99.90;;;;;;5052894;28;20747;-67
2022/06/27 06:27:40;;;;;;;0.85;0.38;;;15.50;99.90;;;;;;5053780;28;20040;-67
2022/06/27 06:30:08;;;;;;;0.43;0.30;;;15.50;99.90;;;;;;5055663;28;20533;-68
2022/06/27 06:32:35;;;;;;;0.98;0.43;;;15.50;99.90;;;;;;5053472;28;20139;-68
2022/06/27 06:35:02;;;;;;;0.52;0.43;;;15.50;99.90;;;;;;5054475;28;20033;-67
2022/06/27 06:37:31;;;;;;;0.45;0.20;;;15.40;99.90;;;;;;5054316;28;20041;-67
2022/06/27 06:39:59;;;;;;;0.20;0.10;;;15.30;99.90;;;;;;5068957;28;20079;-68
2022/06/27 06:42:25;;;;;;;0.98;0.40;;;15.40;99.90;;;;;;5053823;28;20041;-67
2022/06/27 06:44:54;;;;;;;0.52;0.30;;;15.60;99.90;;;;;;5053917;28;20068;-68
2022/06/27 06:47:20;;;;;;;0.50;0.30;;;15.50;99.90;;;;;;5053354;28;20075;-68
2022/06/27 06:49:48;;;;;;;3.45;0.32;;;15.60;99.90;;;;;;5054614;28;20068;-68
2022/06/27 06:52:14;;;;;;;4.88;0.50;;;15.60;99.90;;;;;;5055667;28;20059;-68
2022/06/27 06:54:41;;;;;;;1.67;0.25;;;15.50;99.90;;;;;;5051987;28;20048;-67
2022/06/27 06:57:09;;;;;;;1.27;0.32;;;15.40;99.90;;;;;;5053715;28;20065;-67
2022/06/27 06:59:37;;;;;;;3.10;0.20;;;15.50;99.90;;;;;;5053664;28;20037;-68
2022/06/27 07:02:05;;;;;;;0.52;0.10;;;15.40;99.90;;;;;;5054512;28;20111;-68
2022/06/27 07:04:32;;;;;;;0.38;0.20;;;15.40;99.90;;;;;;5053303;28;20083;-67
2022/06/27 07:06:58;;;;;;;1.08;0.20;;;15.40;99.90;;;;;;5053962;28;20065;-68
2022/06/27 07:09:26;;;;;;;0.52;0.20;;;15.50;99.90;;;;;;5052083;28;20396;-68
2022/06/27 07:11:53;;;;;;;0.38;0.25;;;15.50;99.90;;;;;;5035316;28;20527;-68
2022/06/27 07:14:19;;;;;;;0.52;0.10;;;15.50;99.90;;;;;;5055098;28;20033;-68
2022/06/27 07:16:48;;;;;;;0.93;0.20;;;15.60;99.90;;;;;;5053949;28;20127;-68
2022/06/27 07:19:14;;;;;;;0.30;0.20;;;15.60;99.90;;;;;;5054096;28;20559;-68
2022/06/27 07:21:40;;;;;;;1.33;0.70;;;15.70;99.90;;;;;;5053141;28;20033;-68
2022/06/27 07:24:08;;;;;;;0.28;0.20;;;15.70;99.90;;;;;;5052093;28;20074;-67
2022/06/27 07:26:36;;;;;;;0.50;0.20;;;15.60;99.90;;;;;;5052526;28;20048;-67
2022/06/27 07:29:05;;;;;;;0.55;0.20;;;15.70;99.90;;;;;;5052652;28;20048;-68
2022/06/27 07:31:32;;;;;;;2.38;0.20;;;15.80;99.90;;;;;;5053381;28;20072;-69
2022/06/27 07:33:59;;;;;;;0.80;0.30;;;15.90;99.90;;;;;;5053564;28;20048;-69
2022/06/27 07:36:26;;;;;;;0.25;0.25;;;15.90;99.90;;;;;;5053020;28;20114;-68
2022/06/27 07:38:54;;;;;;;0.40;0.15;;;16.00;99.90;;;;;;5052783;28;20068;-68
2022/06/27 07:41:23;;;;;;;0.88;0.20;;;16.00;99.90;;;;;;5051109;28;20090;-68
2022/06/27 07:43:50;;;;;;;1.55;0.50;;;16.00;99.90;;;;;;5050358;28;20049;-68
2022/06/27 07:46:17;;;;;;;0.90;0.30;;;15.90;99.90;;;;;;5051944;28;20041;-68
2022/06/27 07:48:54;;;;;;;1.45;0.20;;;15.90;99.90;;;;;;5051048;28;20032;-68
2022/06/27 07:51:21;;;;;;;0.35;0.22;;;15.90;99.90;;;;;;5051965;28;20475;-69
2022/06/27 07:53:50;;;;;;;0.28;0.20;;;16.00;99.90;;;;;;5052584;28;20033;-69
2022/06/27 07:56:18;;;;;;;0.28;0.17;;;16.00;99.90;;;;;;5050446;28;20091;-70
2022/06/27 07:58:45;;;;;;;1.15;0.30;;;16.00;99.90;;;;;;5050726;28;20033;-68
2022/06/27 08:01:14;;;;;;;0.68;0.30;;;16.00;99.90;;;;;;5049346;28;20037;-68
2022/06/27 08:03:47;;;;;;;0.80;0.52;;;16.00;99.90;;;;;;5051947;28;20033;-68
2022/06/27 08:06:23;;;;;;;2.42;0.35;;;16.00;99.90;;;;;;5050986;28;20590;-69
2022/06/27 08:08:57;;;;;;;0.55;0.30;;;16.10;99.90;;;;;;5033724;28;20033;-68
2022/06/27 08:11:29;;;;;;;0.50;0.40;;;16.10;99.90;;;;;;5051577;28;20098;-67
2022/06/27 08:14:03;;;;;;;1.40;0.73;;;16.10;99.90;;;;;;5051273;28;20041;-68
2022/06/27 08:16:31;;;;;;;0.63;0.40;;;16.00;99.90;;;;;;5051283;28;20041;-67
2022/06/27 08:18:58;;;;;;;1.10;0.20;;;16.20;99.90;;;;;;5052557;28;20124;-68
2022/06/27 08:21:27;;;;;;;0.30;0.30;;;16.20;99.90;;;;;;5051897;28;20373;-68
2022/06/27 08:24:02;;;;;;;0.90;0.55;;;16.20;99.90;;;;;;5051695;28;20071;-67
2022/06/27 08:26:31;;;;;;;0.40;0.20;;;16.20;99.90;;;;;;5051760;28;20086;-67
2022/06/27 08:29:04;;;;;;;0.30;0.22;;;16.30;99.90;;;;;;5050457;28;20059;-67
2022/06/27 08:31:33;;;;;;;1.65;0.30;;;16.40;99.90;;;;;;5052058;28;20496;-67
2022/06/27 08:34:04;;;;;;;1.17;0.40;;;16.60;99.90;;;;;;5051955;28;20063;-67
2022/06/27 08:36:33;;;;;;;4.70;0.70;;;16.90;99.90;;;;;;5051923;28;20040;-67
2022/06/27 08:39:04;;;;;;;2.45;0.50;;;17.10;99.90;;;;;;5051085;28;20037;-67
2022/06/27 08:41:31;;;;;;;1.95;0.30;;;17.20;99.90;;;;;;5051862;28;20037;-67
2022/06/27 08:44:00;;;;;;;0.98;0.30;;;;;;;;;;5049347;28;20037;-67
2022/06/27 08:46:29;;;;;;;1.05;0.30;;;17.60;99.90;;;;;;5050918;28;20144;-68
2022/06/27 08:48:57;;;;;;;0.25;0.20;;;17.80;99.90;;;;;;5050831;28;20041;-68
2022/06/27 08:51:25;;;;;;;2.55;0.60;;;17.80;99.90;;;;;;5051722;28;20508;-68
2022/06/27 08:53:54;;;;;;;3.92;0.57;;;17.70;99.90;;;;;;5051138;28;20040;-67
2022/06/27 08:56:24;;;;;;;0.93;0.80;;;17.60;99.90;;;;;;5050596;28;20120;-68
2022/06/27 08:58:52;;;;;;;3.60;0.57;;;17.60;99.90;;;;;;5051104;28;20044;-68
2022/06/27 09:01:22;;;;;;;1.30;0.70;;;17.70;99.90;;;;;;5051574;28;20095;-68
2022/06/27 09:04:01;;;;;;;1.58;0.50;;;18.00;99.90;;;;;;5050498;28;20150;-67
2022/06/27 09:06:48;;;;;;;2.23;0.70;;;18.10;99.90;;;;;;5050631;28;20515;-68
2022/06/27 09:09:15;;;;;;;2.30;0.55;;;18.30;99.90;;;;;;5044205;28;20390;-67
2022/06/27 09:11:43;;;;;;;4.50;0.65;;;18.30;99.90;;;;;;5053695;28;20132;-67
2022/06/27 09:14:32;;;;;;;3.40;0.60;;;18.60;99.90;;;;;;5053709;28;20365;-68
2022/06/27 09:17:00;;;;;;;3.70;0.68;;;18.80;99.90;;;;;;5053760;28;20032;-68
2022/06/27 09:19:52;;;;;;;1.45;0.60;;;18.60;99.90;;;;;;5053660;28;20072;-68
2022/06/27 09:22:20;;;;;;;1.00;0.50;;;18.30;99.90;;;;;;5053741;28;20102;-67
2022/06/27 09:25:09;;;;;;;0.80;0.40;;;18.50;99.90;;;;;;5053717;28;20044;-67
2022/06/27 09:27:44;;;;;;;2.35;0.70;;;18.60;99.90;;;;;;5053726;28;20036;-67
2022/06/27 09:30:21;;;;;;;3.03;0.40;;;18.50;99.90;;;;;;5053648;28;20526;-67
2022/06/27 09:32:53;;;;;;;3.67;0.40;;;18.30;99.90;;;;;;5053531;28;20108;-67
2022/06/27 09:35:28;;;;;;;0.68;0.47;;;18.30;99.90;;;;;;5053336;28;20040;-68
2022/06/27 09:37:59;;;;;;;1.17;0.77;;;18.40;99.90;;;;;;5053342;28;20091;-68
2022/06/27 09:40:27;;;;;;;3.45;0.60;;;18.50;99.90;;;;;;5053379;28;20082;-67
2022/06/27 09:42:57;;;;;;;0.68;0.50;;;18.50;99.90;;;;;;5053240;28;20084;-68
2022/06/27 09:45:25;;;;;;;1.05;0.60;;;18.40;99.90;;;;;;5053244;28;20041;-68
2022/06/27 09:48:04;;;;;;;0.68;0.50;;;18.50;99.90;;;;;;5053120;28;20171;-68
2022/06/27 09:50:34;;;;;;;1.35;0.65;;;18.60;99.90;;;;;;5053134;28;20040;-67
2022/06/27 09:53:01;;;;;;;0.65;0.55;;;19.00;99.90;;;;;;5055960;28;20133;-68
2022/06/27 09:55:27;;;;;;;2.08;0.40;;;19.10;99.90;;;;;;5056677;28;20060;-68
2022/06/27 09:57:55;;;;;;;0.73;0.50;;;19.10;99.90;;;;;;5056805;28;20399;-69
2022/06/27 10:00:22;;;;;;;1.85;0.75;;;19.30;99.90;;;;;;5056558;28;20033;-68
2022/06/27 10:02:49;;;;;;;1.58;0.60;;;19.60;99.90;;;;;;5056684;28;20102;-68
2022/06/27 10:05:19;;;;;;;1.10;0.70;;;19.60;99.90;;;;;;5055259;28;20033;-68
2022/06/27 10:07:52;;;;;;;0.70;0.50;;;19.90;99.90;;;;;;5056558;28;20099;-69
2022/06/27 10:10:18;;;;;;;0.60;0.50;;;19.90;99.90;;;;;;5056551;28;20048;-68
2022/06/27 10:13:01;;;;;;;3.70;0.90;;;19.80;99.90;;;;;;5056531;28;20120;-68
2022/06/27 10:15:31;;;;;;;1.58;0.70;;;20.10;99.90;;;;;;5056463;28;20037;-68
2022/06/27 10:17:59;;;;;;;1.05;0.52;;;20.20;99.90;;;;;;5056763;28;20364;-69
2022/06/27 10:20:33;;;;;;;2.75;0.52;;;20.20;99.90;;;;;;5056487;28;20567;-68
2022/06/27 10:23:14;;;;;;;1.70;0.50;;;20.50;99.90;;;;;;5056529;28;20037;-69
2022/06/27 10:25:44;;;;;;;1.92;0.60;;;20.40;99.90;;;;;;5056241;28;20037;-68
2022/06/27 10:28:12;;;;;;;1.77;0.80;;;20.40;99.90;;;;;;5056244;28;20037;-68
2022/06/27 10:30:41;;;;;;;1.88;0.60;;;20.20;99.90;;;;;;5056255;28;20037;-68
2022/06/27 10:33:30;;;;;;;0.87;0.60;;;20.30;99.90;;;;;;5056532;28;20041;-69
2022/06/27 10:38:22;;;;;;;1.05;0.65;;;20.30;99.90;;;;;;5055416;28;20033;-68
2022/06/27 10:40:50;;;;;;;1.40;0.35;;;20.30;99.90;;;;;;5055581;28;20415;-68
2022/06/27 10:43:35;;;;;;;1.80;0.47;;;20.10;99.90;;;;;;5054983;28;20135;-68
2022/06/27 10:46:21;;;;;;;0.38;0.30;;;20.20;99.90;;;;;;5054795;28;20099;-69
2022/06/27 10:48:58;;;;;;;0.98;0.40;;;20.30;99.90;;;;;;5055273;28;20071;-68
2022/06/27 10:51:28;;;;;;;0.73;0.40;;;20.30;99.90;;;;;;5055199;28;20041;-68
2022/06/27 10:54:06;;;;;;;1.52;0.40;;;20.30;99.90;;;;;;5055755;28;20190;-69
2022/06/27 10:56:34;;;;;;;1.67;0.52;;;20.10;99.90;;;;;;5055645;28;20325;-68
2022/06/27 10:59:25;;;;;;;1.88;0.60;;;20.10;99.90;;;;;;5055749;28;20032;-69
2022/06/27 11:01:52;;;;;;;0.70;0.60;;;20.10;99.90;;;;;;5015021;28;20040;-68
2022/06/27 11:04:28;;;;;;;3.70;0.60;;;20.30;99.90;;;;;;5055361;28;20041;-68
2022/06/27 11:07:05;;;;;;;0.60;0.40;;;20.00;99.90;;;;;;5055581;28;20048;-69
2022/06/27 11:09:45;;;;;;;0.70;0.57;;;19.90;99.90;;;;;;5055459;28;20500;-68
2022/06/27 11:12:14;;;;;;;1.83;0.50;;;20.00;99.90;;;;;;5055486;28;20511;-68
2022/06/27 11:14:51;;;;;;;1.50;0.50;;;19.90;99.90;;;;;;5055408;28;20044;-68
2022/06/27 11:17:28;;;;;;;1.58;0.22;;;19.80;99.90;;;;;;5055766;28;20048;-69
2022/06/27 11:20:12;;;;;;;0.50;0.35;;;19.90;99.90;;;;;;5055496;28;20124;-69
2022/06/27 11:22:42;;;;;;;0.45;0.40;;;20.00;99.90;;;;;;5054776;28;20040;-69
2022/06/27 11:25:09;;;;;;;1.30;0.40;;;20.10;99.90;;;;;;5054960;28;20044;-70
2022/06/27 11:27:53;;;;;;;1.48;0.52;;;20.50;99.90;;;;;;5035198;28;20122;-70
2022/06/27 11:33:19;;;;;;;2.28;0.60;;;20.80;99.90;;;;;;5034935;28;20405;-70
2022/06/27 11:35:48;;;;;;;1.33;0.80;;;20.90;99.90;;;;;;5034994;28;20121;-70
2022/06/27 11:38:24;;;;;;;1.80;0.60;;;21.10;99.90;;;;;;5034620;28;20384;-70
2022/06/27 11:41:07;;;;;;;1.60;0.50;;;21.10;99.90;;;;;;5035231;28;20041;-69
2022/06/27 11:44:07;;;;;;;1.40;0.57;;;21.10;99.90;;;;;;5050515;28;20034;-70
2022/06/27 11:46:45;;;;;;;3.03;0.60;;;20.90;99.90;;;;;;4992185;28;20033;-70
2022/06/27 11:49:26;;;;;;;0.90;0.57;;;20.90;99.90;;;;;;5033033;28;20128;-70
2022/06/27 11:52:02;;;;;;;1.20;0.50;;;21.00;99.90;;;;;;5032556;28;20042;-69
2022/06/27 11:54:43;;;;;;;4.85;0.70;;;21.00;99.90;;;;;;5032298;28;20388;-69
2022/06/27 11:57:27;;;;;;;1.70;0.50;;;20.90;99.90;;;;;;5032820;28;20079;-70
2022/06/27 11:59:56;;;;;;;2.83;0.50;;;21.10;99.90;;;;;;5032375;28;20048;-70
2022/06/27 12:02:29;;;;;;;1.35;0.50;;;21.00;99.90;;;;;;5032330;28;20065;-70
2022/06/27 12:05:04;;;;;;;0.80;0.63;;;;;;;;;;5032488;28;20044;-69
2022/06/27 12:07:30;;;;;;;1.92;0.50;;;21.30;99.90;;;;;;5033490;28;20041;-69
2022/06/27 12:09:56;;;;;;;1.27;0.88;;;21.10;99.90;;;;;;5037693;28;20045;-70
2022/06/27 12:12:26;;;;;;;3.85;0.75;;;20.60;99.90;;;;;;5051857;28;20044;-70
2022/06/27 12:14:54;;;;;;;1.02;0.40;;;20.50;99.90;;;;;;5051426;28;20048;-70
2022/06/27 12:17:21;;;;;;;0.82;0.52;;;20.10;99.90;;;;;;5052239;28;20041;-69
2022/06/27 12:19:59;;;;;;;0.95;0.47;;;20.00;99.90;;;;;;5052359;28;20041;-70
2022/06/27 12:22:24;;;;;;;1.83;0.40;;;19.80;99.90;;;;;;5050928;28;20598;-70
2022/06/27 12:24:50;;;;;;;0.80;0.50;;;19.80;99.90;;;;;;5052213;28;20103;-69
2022/06/27 12:27:16;;;;;;;1.67;0.50;;;19.70;99.90;;;;;;5052863;28;20070;-70
2022/06/27 12:29:42;;;;;;;1.67;0.50;;;19.60;99.90;;;;;;5051886;28;20072;-71
2022/06/27 12:32:08;;;;;;;0.40;0.40;;;19.40;99.90;;;;;;5050641;28;20076;-70
2022/06/27 12:34:33;;;;;;;1.08;0.47;;;19.30;99.90;;;;;;5052739;28;20391;-69
2022/06/27 12:36:59;;;;;;;1.23;0.40;;;19.20;99.90;;;;;;5049548;28;20040;-70
2022/06/27 12:39:28;;;;;;;2.10;0.50;;;19.10;99.90;;;;;;5051163;28;20467;-70
2022/06/27 12:41:54;;;;;;;0.95;0.60;;;19.10;99.90;;;;;;5051389;28;20166;-69
2022/06/27 12:44:20;;;;;;;1.75;0.47;;;18.90;99.90;;;;;;5053123;28;20095;-68
2022/06/27 12:46:46;;;;;;;0.70;0.40;;;18.90;99.90;;;;;;5053789;28;20446;-68
2022/06/27 12:49:12;;;;;;;0.73;0.43;;;18.70;99.90;;;;;;5053569;28;20076;-69
2022/06/27 12:51:38;;;;;;;1.27;0.90;;;18.70;99.90;;;;;;5051292;28;20476;-68
2022/06/27 12:54:04;;;;;;;1.40;0.57;;;18.60;99.90;;;;;;5052100;28;20049;-69
2022/06/27 12:56:30;;;;;;;2.40;0.73;;;18.50;99.90;;;;;;5053281;28;20569;-68
2022/06/27 12:58:56;;;;;;;1.92;0.70;;;18.30;99.90;;;;;;5052512;28;20396;-68
2022/06/27 13:01:22;;;;;;;1.25;0.60;;;18.20;99.90;;;;;;5051486;28;20107;-66
2022/06/27 13:03:48;;;;;;;0.80;0.63;;;18.10;99.90;;;;;;5051628;28;20120;-67
2022/06/27 13:06:14;;;;;;;0.63;0.52;;;18.00;99.90;;;;;;5049956;28;20067;-67